Terminal Aerodrome Forecast
Issued by NWS Grand Forks, ND

Home | Current Version | Previous Version | Text Only | Print | Product List | Glossary Off
Versions: 1 2 3 4 5 6 7 8 9 10 11 12 13 14 15 16 17 18 19 20 21 22 23 24

901
FTUS43 KFGF 081137
TAFGFK
TAF
KGFK 081137Z 0812/0912 35025G33KT 3SM -SN BLSN BKN012 OVC025
     FM081300 34023G30KT 5SM BLSN OVC025
     FM081500 34024G32KT P6SM BKN025
     FM090000 34012KT P6SM SCT120=

USA.gov is the U.S. government's official web portal to all federal, state and local government web resources and services.